createdAt,value
2024-04-08T00:02:47.851Z,87.0
2024-04-08T00:15:47.844Z,86.0
2024-04-08T00:28:47.857Z,86.0
2024-04-08T00:41:47.898Z,86.0
2024-04-08T00:54:47.944Z,87.0
2024-04-08T01:07:47.953Z,88.0
2024-04-08T01:20:48.020Z,88.0
2024-04-08T01:33:48.062Z,89.0
2024-04-08T01:46:48.092Z,90.0
2024-04-08T01:59:48.170Z,90.0
2024-04-08T02:03:30.255Z,89.0
2024-04-08T05:08:47.470Z,88.0
2024-04-08T05:22:47.653Z,87.0
2024-04-08T05:36:47.487Z,88.0
2024-04-08T05:50:47.561Z,87.0
2024-04-08T06:04:49.232Z,84.0
2024-04-08T06:18:47.497Z,84.0
2024-04-08T06:32:47.574Z,82.0
2024-04-08T06:46:47.528Z,79.0
2024-04-08T07:00:47.563Z,72.0
2024-04-08T07:14:47.584Z,68.0
2024-04-08T07:28:47.556Z,66.0
2024-04-08T07:42:47.609Z,57.0
2024-04-08T07:56:47.629Z,52.0
2024-04-08T08:10:47.602Z,51.0
2024-04-08T08:24:47.615Z,53.0
2024-04-08T08:38:47.643Z,54.0
2024-04-08T08:52:47.663Z,56.0
2024-04-08T09:06:47.674Z,57.0
2024-04-08T09:20:47.767Z,55.0
2024-04-08T09:34:47.732Z,53.0
2024-04-08T09:48:47.702Z,50.0
2024-04-08T10:02:47.815Z,48.0
2024-04-08T10:16:47.742Z,53.0
2024-04-08T10:30:47.749Z,52.0
2024-04-08T10:44:47.762Z,54.0
2024-04-08T10:59:47.815Z,54.0
2024-04-08T11:13:47.746Z,52.0
2024-04-08T11:27:47.816Z,51.0
2024-04-08T11:41:47.825Z,53.0
2024-04-08T11:55:47.765Z,52.0
2024-04-08T12:09:47.838Z,55.0
2024-04-08T12:23:47.913Z,54.0
2024-04-08T12:38:47.898Z,52.0
2024-04-08T12:52:47.939Z,56.0
2024-04-08T13:06:48.017Z,54.0
2024-04-08T13:20:48.051Z,53.0
2024-04-08T13:34:48.834Z,52.0
2024-04-08T13:48:48.060Z,54.0
2024-04-08T14:02:48.130Z,53.0
2024-04-08T14:16:48.113Z,55.0
2024-04-08T14:30:48.068Z,59.0
2024-04-08T14:44:53.823Z,61.0
2024-04-08T14:58:48.125Z,62.0
2024-04-08T15:12:48.179Z,64.0
2024-04-08T15:26:48.123Z,64.0
2024-04-08T15:40:48.141Z,66.0
2024-04-08T15:54:48.169Z,66.0
2024-04-08T16:08:48.190Z,67.0
2024-04-08T16:22:55.449Z,67.0
2024-04-08T16:36:48.199Z,68.0
2024-04-08T16:50:48.254Z,69.0
2024-04-08T17:04:48.310Z,70.0
2024-04-08T17:18:48.314Z,72.0
2024-04-08T17:32:48.404Z,73.0
2024-04-08T17:46:48.331Z,75.0
2024-04-08T18:00:48.433Z,78.0
2024-04-08T18:14:48.380Z,81.0
2024-04-08T18:27:48.427Z,81.0
2024-04-08T18:40:48.405Z,82.0
2024-04-08T18:53:50.480Z,81.0
2024-04-08T19:06:48.506Z,83.0
2024-04-08T19:19:48.451Z,85.0
2024-04-08T19:32:48.432Z,86.0
2024-04-08T19:58:48.469Z,87.0
2024-04-08T20:11:48.474Z,88.0
2024-04-08T20:24:48.480Z,89.0
2024-04-08T20:37:48.494Z,88.0
2024-04-08T20:50:48.496Z,89.0
2024-04-08T21:03:48.576Z,89.0
2024-04-08T21:16:48.515Z,89.0
2024-04-08T21:29:48.518Z,89.0
2024-04-08T21:42:48.543Z,90.0
2024-04-08T21:55:48.531Z,90.0
2024-04-08T22:08:48.552Z,90.0
2024-04-08T22:21:48.569Z,90.0
2024-04-08T22:34:48.820Z,90.0
2024-04-08T22:47:48.734Z,90.0
2024-04-08T23:00:48.687Z,90.0
2024-04-08T23:13:48.576Z,90.0
2024-04-08T23:26:48.627Z,90.0
2024-04-08T23:39:48.594Z,90.0
2024-04-08T23:52:48.616Z,90.0
